createdAt,value
2019-02-12T00:02:18.017Z,78.60
2019-02-12T00:04:57.308Z,78.50
2019-02-12T00:07:37.434Z,77.90
2019-02-12T00:10:16.795Z,77.80
2019-02-12T00:12:56.279Z,77.90
2019-02-12T00:15:36.581Z,78.40
2019-02-12T00:18:16.803Z,77.00
2019-02-12T00:20:55.937Z,77.40
2019-02-12T00:23:35.223Z,78.40
2019-02-12T00:26:14.361Z,77.20
2019-02-12T00:28:53.461Z,77.20
2019-02-12T00:31:32.588Z,77.50
2019-02-12T00:34:16.054Z,77.00
2019-02-12T00:36:55.044Z,76.80
2019-02-12T00:39:34.486Z,75.80
2019-02-12T00:42:13.536Z,75.50
2019-02-12T00:44:52.675Z,75.20
2019-02-12T00:47:31.687Z,74.40
2019-02-12T00:50:11.699Z,74.30
2019-02-12T00:52:51.812Z,74.40
2019-02-12T00:55:36.133Z,73.80
2019-02-12T00:58:14.954Z,73.60
2019-02-12T01:00:54.229Z,72.80
2019-02-12T01:03:34.357Z,72.40
2019-02-12T01:06:13.620Z,71.60
2019-02-12T01:08:52.719Z,71.30
2019-02-12T01:11:32.020Z,71.60
2019-02-12T01:14:11.612Z,71.10
2019-02-12T01:16:50.913Z,70.30
2019-02-12T01:19:29.993Z,70.30
2019-02-12T01:22:12.105Z,69.60
2019-02-12T01:24:51.436Z,69.10
2019-02-12T01:27:30.724Z,68.90
2019-02-12T01:30:11.921Z,68.60
2019-02-12T01:32:53.745Z,68.00
2019-02-12T01:35:32.992Z,68.20
2019-02-12T01:38:12.264Z,67.70
2019-02-12T01:40:51.592Z,67.70
2019-02-12T01:43:30.700Z,66.50
2019-02-12T01:46:16.521Z,67.10
2019-02-12T01:48:58.787Z,67.90
2019-02-12T01:51:37.971Z,68.10
2019-02-12T01:54:18.910Z,69.40
2019-02-12T01:56:58.269Z,69.60
2019-02-12T01:59:37.874Z,71.20
2019-02-12T02:02:17.169Z,71.50
2019-02-12T02:04:56.551Z,72.20
2019-02-12T02:07:35.978Z,71.90
2019-02-12T02:10:17.016Z,71.90
2019-02-12T02:12:56.172Z,71.80
2019-02-12T02:15:35.294Z,71.80
2019-02-12T02:18:14.462Z,71.90
2019-02-12T02:20:55.189Z,70.50
2019-02-12T02:23:34.315Z,69.50
2019-02-12T02:26:13.588Z,68.20
2019-02-12T02:28:52.715Z,68.00
2019-02-12T02:31:31.884Z,66.60
2019-02-12T02:34:11.113Z,66.30
2019-02-12T02:36:51.081Z,66.30
2019-02-12T02:39:29.684Z,65.60
2019-02-12T02:42:11.281Z,66.40
2019-02-12T02:44:50.204Z,65.10
2019-02-12T02:47:29.624Z,65.50
2019-02-12T02:50:08.975Z,65.20
2019-02-12T02:52:49.149Z,63.70
2019-02-12T02:55:28.484Z,63.00
2019-02-12T02:58:09.309Z,61.90
2019-02-12T03:00:48.763Z,60.30
2019-02-12T03:03:28.761Z,60.30
2019-02-12T03:06:08.550Z,58.90
2019-02-12T03:08:49.054Z,59.00
2019-02-12T03:11:28.411Z,58.20
2019-02-12T03:14:08.340Z,57.30
2019-02-12T03:16:48.469Z,57.90
2019-02-12T03:19:27.640Z,57.40
2019-02-12T03:22:06.825Z,56.80
2019-02-12T03:24:45.975Z,57.60
2019-02-12T03:27:25.269Z,55.80
2019-02-12T03:30:05.670Z,55.60
2019-02-12T03:32:45.126Z,56.10
2019-02-12T03:35:24.246Z,56.30
2019-02-12T03:38:03.801Z,56.60
2019-02-12T03:40:42.965Z,57.50
2019-02-12T03:43:21.947Z,57.20
2019-02-12T03:46:01.503Z,55.80
2019-02-12T03:48:40.873Z,55.60
2019-02-12T03:51:20.012Z,56.00
2019-02-12T03:53:59.113Z,56.30
2019-02-12T03:56:39.621Z,56.60
2019-02-12T03:59:22.674Z,55.30
2019-02-12T04:02:02.088Z,53.70
2019-02-12T04:04:44.120Z,53.40
2019-02-12T04:07:20.545Z,53.40
2019-02-12T04:09:59.236Z,52.20
2019-02-12T04:12:39.197Z,52.80
2019-02-12T04:15:18.474Z,53.40
2019-02-12T04:17:58.241Z,54.60
2019-02-12T04:20:37.652Z,55.20
2019-02-12T04:23:16.610Z,55.00
2019-02-12T04:25:55.552Z,53.80
2019-02-12T04:28:38.626Z,52.70
2019-02-12T04:31:17.906Z,53.00
2019-02-12T04:33:56.899Z,53.60
2019-02-12T04:36:36.090Z,52.90
2019-02-12T04:39:15.459Z,52.50
2019-02-12T04:41:54.415Z,53.10
2019-02-12T04:44:33.528Z,54.30
2019-02-12T04:47:12.488Z,51.80
2019-02-12T04:49:51.530Z,51.60
2019-02-12T04:52:32.019Z,52.10
2019-02-12T04:55:12.029Z,52.90
2019-02-12T04:57:54.014Z,53.40
2019-02-12T05:00:34.557Z,53.30
2019-02-12T05:03:13.540Z,52.80
2019-02-12T05:05:52.678Z,52.00
2019-02-12T05:08:31.656Z,51.10
2019-02-12T05:11:10.862Z,50.40
2019-02-12T05:13:50.151Z,48.20
2019-02-12T05:16:30.661Z,47.60
2019-02-12T05:19:12.690Z,47.70
2019-02-12T05:21:51.654Z,45.70
2019-02-12T05:24:30.773Z,45.80
2019-02-12T05:27:10.129Z,45.50
2019-02-12T05:29:52.251Z,45.80
2019-02-12T05:32:35.478Z,45.70
2019-02-12T05:35:12.665Z,45.20
2019-02-12T05:37:52.920Z,45.00
2019-02-12T05:40:31.804Z,42.90
2019-02-12T05:43:12.159Z,44.00
2019-02-12T05:45:51.159Z,44.00
2019-02-12T05:48:30.457Z,43.40
2019-02-12T05:51:10.261Z,44.60
2019-02-12T05:53:49.326Z,45.00
2019-02-12T05:56:29.930Z,45.80
2019-02-12T05:59:09.009Z,47.10
2019-02-12T06:01:49.374Z,46.80
2019-02-12T06:04:28.803Z,45.90
2019-02-12T06:07:08.889Z,45.80
2019-02-12T06:09:48.204Z,44.30
2019-02-12T06:12:38.214Z,43.90
2019-02-12T06:15:17.456Z,43.20
2019-02-12T06:17:56.980Z,44.30
2019-02-12T06:20:37.270Z,45.10
2019-02-12T06:23:17.453Z,45.00
2019-02-12T06:25:58.852Z,45.10
2019-02-12T06:28:39.114Z,46.20
2019-02-12T06:31:18.286Z,46.70
2019-02-12T06:33:57.403Z,46.70
2019-02-12T06:36:37.277Z,47.10
2019-02-12T06:39:16.227Z,46.10
2019-02-12T06:41:57.360Z,45.40
2019-02-12T06:44:36.843Z,44.00
2019-02-12T06:47:16.402Z,43.70
2019-02-12T06:49:57.425Z,43.10
2019-02-12T06:52:36.740Z,42.80
2019-02-12T06:55:16.009Z,42.00
2019-02-12T06:57:54.863Z,42.50
2019-02-12T07:00:34.005Z,43.20
2019-02-12T07:03:20.150Z,44.00
2019-02-12T07:06:09.539Z,45.10
2019-02-12T07:08:59.160Z,44.40
2019-02-12T07:12:12.586Z,43.30
2019-02-12T07:15:19.089Z,42.20
2019-02-12T07:18:17.829Z,40.80
2019-02-12T07:21:37.852Z,40.60
2019-02-12T07:24:45.012Z,38.80
2019-02-12T07:28:03.492Z,39.60
2019-02-12T07:31:22.123Z,39.10
2019-02-12T07:34:34.954Z,39.00
2019-02-12T07:37:39.315Z,39.10
2019-02-12T07:40:52.608Z,40.00
2019-02-12T07:44:10.176Z,40.80
2019-02-12T07:47:10.318Z,40.80
2019-02-12T07:50:41.623Z,40.20
2019-02-12T07:53:31.488Z,39.80
2019-02-12T07:57:00.205Z,40.90
2019-02-12T08:00:07.232Z,42.10
2019-02-12T08:03:15.573Z,40.70
2019-02-12T08:06:21.862Z,40.30
2019-02-12T08:09:44.803Z,40.30
2019-02-12T08:12:39.930Z,41.50
2019-02-12T08:15:39.256Z,40.80
2019-02-12T08:18:37.919Z,41.00
2019-02-12T08:21:38.880Z,41.80
2019-02-12T08:24:59.908Z,42.00
2019-02-12T08:28:31.674Z,42.00
2019-02-12T08:31:25.115Z,45.50
2019-02-12T08:34:36.285Z,46.50
2019-02-12T08:37:44.131Z,47.10
2019-02-12T08:40:57.832Z,48.00
2019-02-12T08:44:08.746Z,48.50
2019-02-12T08:47:30.358Z,49.10
2019-02-12T08:50:36.227Z,49.10
2019-02-12T08:53:57.223Z,49.20
2019-02-12T08:57:11.266Z,49.30
2019-02-12T09:00:14.113Z,49.90
2019-02-12T09:03:38.515Z,49.10
2019-02-12T09:06:47.514Z,49.30
2019-02-12T09:10:27.742Z,50.00
2019-02-12T09:13:37.804Z,47.40
2019-02-12T09:16:59.164Z,49.80
2019-02-12T09:20:06.629Z,52.20
2019-02-12T09:23:40.380Z,53.20
2019-02-12T09:26:33.272Z,53.20
2019-02-12T09:29:33.363Z,52.70
2019-02-12T09:32:46.426Z,53.40
2019-02-12T09:36:00.291Z,53.90
2019-02-12T09:39:15.494Z,54.40
2019-02-12T09:42:37.993Z,55.40
2019-02-12T09:45:24.157Z,56.00
2019-02-12T09:48:33.070Z,56.20
2019-02-12T09:51:49.345Z,56.20
2019-02-12T09:55:02.821Z,56.20
2019-02-12T09:58:12.340Z,56.30
2019-02-12T10:01:39.618Z,55.90
2019-02-12T10:04:39.554Z,56.40
2019-02-12T10:07:42.360Z,56.70
2019-02-12T10:11:01.108Z,56.70
2019-02-12T10:13:51.404Z,57.10
2019-02-12T10:17:14.882Z,57.20
2019-02-12T10:20:06.512Z,57.60
2019-02-12T10:23:14.132Z,56.80
2019-02-12T10:26:03.495Z,57.10
2019-02-12T10:29:06.204Z,57.40
2019-02-12T10:31:48.930Z,56.90
2019-02-12T10:34:26.429Z,56.60
2019-02-12T10:37:06.383Z,56.50
2019-02-12T10:39:47.779Z,56.20
2019-02-12T10:42:26.972Z,56.80
2019-02-12T10:45:08.541Z,56.50
2019-02-12T10:47:51.305Z,56.90
2019-02-12T10:50:27.715Z,56.60
2019-02-12T10:53:08.967Z,57.10
2019-02-12T10:55:48.522Z,57.40
2019-02-12T10:58:27.807Z,56.80
2019-02-12T11:01:09.209Z,56.70
2019-02-12T11:03:48.807Z,56.80
2019-02-12T11:06:27.854Z,57.50
2019-02-12T11:09:08.409Z,57.40
2019-02-12T11:11:49.022Z,57.40
2019-02-12T11:14:28.855Z,57.20
2019-02-12T11:17:09.032Z,57.70
2019-02-12T11:19:49.347Z,58.10
2019-02-12T11:22:29.511Z,58.00
2019-02-12T11:25:10.426Z,58.70
2019-02-12T11:27:49.861Z,58.20
2019-02-12T11:30:30.049Z,58.70
2019-02-12T11:33:10.076Z,59.00
2019-02-12T11:35:50.246Z,59.30
2019-02-12T11:38:31.619Z,58.90
2019-02-12T11:41:11.894Z,59.50
2019-02-12T11:43:51.302Z,59.90
2019-02-12T11:46:33.040Z,60.70
2019-02-12T11:49:12.603Z,60.90
2019-02-12T11:51:52.732Z,60.40
2019-02-12T11:54:32.532Z,60.00
2019-02-12T11:57:12.491Z,60.80
2019-02-12T11:59:52.323Z,60.90
2019-02-12T12:02:41.792Z,60.80
2019-02-12T12:05:17.679Z,60.30
2019-02-12T12:07:58.505Z,60.20
2019-02-12T12:10:40.122Z,60.40
2019-02-12T12:13:20.523Z,60.50
2019-02-12T12:16:01.018Z,60.60
2019-02-12T12:18:41.043Z,60.80
2019-02-12T12:21:25.715Z,61.30
2019-02-12T12:24:05.422Z,61.70
2019-02-12T12:26:44.658Z,61.60
2019-02-12T12:29:24.126Z,61.30
2019-02-12T12:32:05.412Z,62.60
2019-02-12T12:34:47.663Z,61.70
2019-02-12T12:37:31.681Z,62.80
2019-02-12T12:40:11.095Z,62.90
2019-02-12T12:42:52.372Z,61.90
2019-02-12T12:45:31.735Z,62.30
2019-02-12T12:48:13.184Z,63.40
2019-02-12T12:50:52.400Z,63.90
2019-02-12T12:53:31.730Z,63.30
2019-02-12T12:56:13.137Z,63.70
2019-02-12T12:58:52.276Z,63.60
2019-02-12T13:01:32.548Z,64.00
2019-02-12T13:04:12.844Z,63.30
2019-02-12T13:06:53.131Z,62.10
2019-02-12T13:09:32.162Z,61.70
2019-02-12T13:12:11.571Z,62.50
2019-02-12T13:14:55.761Z,62.70
2019-02-12T13:17:40.003Z,62.80
2019-02-12T13:20:20.066Z,62.00
2019-02-12T13:23:33.938Z,62.00
2019-02-12T13:26:35.324Z,62.80
2019-02-12T13:30:04.519Z,63.60
2019-02-12T13:32:46.307Z,63.00
2019-02-12T13:35:26.511Z,62.60
2019-02-12T13:38:07.024Z,63.40
2019-02-12T13:40:50.008Z,64.40
2019-02-12T13:43:29.507Z,64.30
2019-02-12T13:46:09.292Z,63.60
2019-02-12T13:48:48.751Z,64.80
2019-02-12T13:51:32.313Z,65.00
2019-02-12T13:54:40.413Z,66.10
2019-02-12T13:57:42.154Z,65.50
2019-02-12T14:00:21.718Z,64.80
2019-02-12T14:03:00.986Z,65.50
2019-02-12T14:05:42.910Z,66.10
2019-02-12T14:08:40.199Z,66.10
2019-02-12T14:11:52.794Z,65.20
2019-02-12T14:14:48.731Z,64.90
2019-02-12T14:17:28.471Z,65.80
2019-02-12T14:20:29.763Z,65.90
2019-02-12T14:23:09.811Z,65.90
2019-02-12T14:25:50.522Z,65.70
2019-02-12T14:28:34.947Z,65.90
2019-02-12T14:31:16.406Z,66.60
2019-02-12T14:33:59.088Z,66.60
2019-02-12T14:36:41.972Z,65.60
2019-02-12T14:39:21.172Z,65.80
2019-02-12T14:42:00.670Z,67.10
2019-02-12T14:44:41.763Z,66.90
2019-02-12T14:47:32.026Z,67.20
2019-02-12T14:50:27.506Z,66.50
2019-02-12T14:53:07.658Z,66.50
2019-02-12T14:55:49.937Z,66.50
2019-02-12T14:58:32.569Z,66.80
2019-02-12T15:01:50.621Z,67.10
2019-02-12T15:05:00.541Z,66.90
2019-02-12T15:07:39.804Z,67.10
2019-02-12T15:10:19.875Z,67.70
2019-02-12T15:13:04.492Z,68.60
2019-02-12T15:15:55.008Z,68.30
2019-02-12T15:18:34.658Z,68.20
2019-02-12T15:21:21.350Z,68.10
2019-02-12T15:24:02.676Z,69.10
2019-02-12T15:26:43.790Z,68.80
2019-02-12T15:29:26.334Z,68.70
2019-02-12T15:32:06.660Z,68.30
2019-02-12T15:34:47.124Z,68.00
2019-02-12T15:37:26.921Z,68.10
2019-02-12T15:40:06.357Z,68.90
2019-02-12T15:42:46.845Z,68.90
2019-02-12T15:45:45.527Z,68.20
2019-02-12T15:48:25.109Z,68.50
2019-02-12T15:51:15.412Z,69.10
2019-02-12T15:53:54.809Z,68.50
2019-02-12T15:56:33.958Z,68.50
2019-02-12T15:59:14.416Z,68.70
2019-02-12T16:01:54.906Z,69.50
2019-02-12T16:04:34.061Z,69.80
2019-02-12T16:07:15.664Z,69.60
2019-02-12T16:09:55.355Z,69.50
2019-02-12T16:12:35.280Z,70.20
2019-02-12T16:15:19.893Z,70.70
2019-02-12T16:18:00.299Z,70.20
2019-02-12T16:20:39.948Z,70.00
2019-02-12T16:23:21.796Z,69.80
2019-02-12T16:26:01.540Z,70.40
2019-02-12T16:28:42.042Z,70.50
2019-02-12T16:31:21.479Z,70.20
2019-02-12T16:34:00.786Z,70.10
2019-02-12T16:36:41.072Z,70.50
2019-02-12T16:39:20.517Z,71.10
2019-02-12T16:41:59.732Z,70.90
2019-02-12T16:44:40.146Z,70.30
2019-02-12T16:47:19.511Z,70.30
2019-02-12T16:49:59.663Z,72.10
2019-02-12T16:52:42.734Z,72.50
2019-02-12T16:55:22.836Z,72.00
2019-02-12T16:58:02.646Z,71.10
2019-02-12T17:00:44.071Z,72.20
2019-02-12T17:03:24.590Z,73.00
2019-02-12T17:06:05.175Z,72.40
2019-02-12T17:08:44.554Z,72.00
2019-02-12T17:11:26.792Z,71.60
2019-02-12T17:14:06.105Z,73.40
2019-02-12T17:16:45.666Z,73.50
2019-02-12T17:19:27.049Z,73.30
2019-02-12T17:22:06.390Z,72.60
2019-02-12T17:24:46.378Z,73.50
2019-02-12T17:27:26.058Z,74.40
2019-02-12T17:30:05.827Z,73.50
2019-02-12T17:32:48.657Z,72.80
2019-02-12T17:57:21.834Z,73.80
2019-02-12T18:00:01.101Z,72.80
2019-02-12T18:02:41.635Z,73.80
2019-02-12T18:05:20.977Z,73.70
2019-02-12T18:08:00.646Z,73.90
2019-02-12T18:10:40.306Z,73.60
2019-02-12T18:13:18.957Z,73.40
2019-02-12T18:15:58.983Z,74.60
2019-02-12T18:18:38.626Z,74.30
2019-02-12T18:21:18.265Z,74.00
2019-02-12T18:23:57.519Z,73.40
2019-02-12T18:26:38.004Z,73.80
2019-02-12T18:29:17.268Z,73.90
2019-02-12T18:31:56.704Z,74.00
2019-02-12T18:34:36.303Z,73.90
2019-02-12T18:37:15.850Z,73.70
2019-02-12T18:39:56.400Z,74.10
2019-02-12T18:42:35.722Z,74.10
2019-02-12T18:45:16.411Z,73.80
2019-02-12T18:47:55.950Z,73.90
2019-02-12T18:50:35.412Z,73.50
2019-02-12T18:53:14.676Z,74.30
2019-02-12T18:55:54.116Z,74.40
2019-02-12T18:58:34.662Z,73.90
2019-02-12T19:01:14.861Z,73.50
2019-02-12T19:03:54.050Z,73.50
2019-02-12T19:06:33.409Z,73.70
2019-02-12T19:09:18.147Z,73.80
2019-02-12T19:11:57.819Z,73.80
2019-02-12T19:14:37.162Z,73.90
2019-02-12T19:17:16.462Z,73.60
2019-02-12T19:19:55.883Z,73.50
2019-02-12T19:22:35.144Z,73.30
2019-02-12T19:25:17.114Z,73.20
2019-02-12T19:27:56.362Z,72.90
2019-02-12T19:30:35.472Z,73.40
2019-02-12T19:33:15.714Z,73.80
2019-02-12T19:35:54.947Z,73.70
2019-02-12T19:38:34.806Z,73.20
2019-02-12T19:41:13.509Z,73.20
2019-02-12T19:43:52.932Z,73.20
2019-02-12T19:46:32.980Z,73.50
2019-02-12T19:49:12.139Z,73.30
2019-02-12T19:51:51.578Z,73.60
2019-02-12T19:54:30.845Z,73.30
2019-02-12T19:57:10.606Z,73.50
2019-02-12T19:59:51.874Z,73.90
2019-02-12T20:02:31.396Z,74.20
2019-02-12T20:05:14.354Z,74.00
2019-02-12T20:07:53.424Z,73.50
2019-02-12T20:10:34.671Z,74.00
2019-02-12T20:13:15.571Z,73.90
2019-02-12T20:15:54.937Z,74.10
2019-02-12T20:18:33.838Z,73.80
2019-02-12T20:21:17.344Z,73.80
2019-02-12T20:24:02.843Z,73.80
2019-02-12T20:26:44.034Z,74.50
2019-02-12T20:29:23.106Z,74.70
2019-02-12T20:32:02.528Z,74.90
2019-02-12T20:34:41.851Z,74.40
2019-02-12T20:37:22.000Z,73.70
2019-02-12T20:40:02.343Z,73.90
2019-02-12T20:42:42.467Z,73.20
2019-02-12T20:45:21.971Z,73.30
2019-02-12T20:48:01.089Z,73.80
2019-02-12T20:50:40.556Z,73.50
2019-02-12T20:53:20.686Z,72.40
2019-02-12T20:55:59.997Z,72.10
2019-02-12T20:58:39.558Z,72.00
2019-02-12T21:01:18.256Z,72.70
2019-02-12T21:03:57.896Z,73.00
2019-02-12T21:06:38.413Z,72.50
2019-02-12T21:09:17.989Z,71.70
2019-02-12T21:11:58.324Z,72.30
2019-02-12T21:14:38.763Z,73.30
2019-02-12T21:17:18.546Z,72.80
2019-02-12T21:19:57.886Z,72.90
2019-02-12T21:22:37.507Z,73.00
2019-02-12T21:25:16.471Z,73.30
2019-02-12T21:27:55.358Z,73.30
2019-02-12T21:30:34.472Z,73.10
2019-02-12T21:33:13.708Z,72.70
2019-02-12T21:35:52.935Z,72.40
2019-02-12T21:38:31.919Z,73.40
2019-02-12T21:41:11.489Z,73.40
2019-02-12T21:43:50.679Z,74.80
2019-02-12T21:46:29.990Z,74.00
2019-02-12T21:49:09.066Z,73.50
2019-02-12T21:51:48.662Z,73.50
2019-02-12T21:54:28.140Z,73.40
2019-02-12T21:57:07.428Z,74.80
2019-02-12T21:59:47.425Z,75.90
2019-02-12T22:02:26.626Z,76.20
2019-02-12T22:05:06.080Z,76.20
2019-02-12T22:07:46.765Z,76.10
2019-02-12T22:10:26.096Z,75.70
2019-02-12T22:13:08.440Z,75.30
2019-02-12T22:15:54.954Z,74.00
2019-02-12T22:18:34.302Z,75.20
2019-02-12T22:21:14.568Z,76.10
2019-02-12T22:23:55.971Z,76.30
2019-02-12T22:26:35.694Z,75.00
2019-02-12T22:29:16.091Z,74.10
2019-02-12T22:31:57.471Z,74.90
2019-02-12T22:34:36.951Z,75.90
2019-02-12T22:37:16.819Z,76.00
2019-02-12T22:39:57.498Z,76.70
2019-02-12T22:42:40.263Z,76.50
2019-02-12T22:45:21.461Z,76.50
2019-02-12T22:48:02.645Z,76.30
2019-02-12T22:50:43.354Z,75.90
2019-02-12T22:53:22.952Z,76.20
2019-02-12T22:56:02.944Z,76.40
2019-02-12T22:58:43.274Z,76.80
2019-02-12T23:01:34.810Z,76.20
2019-02-12T23:04:16.430Z,76.20
2019-02-12T23:06:55.982Z,76.30
2019-02-12T23:09:36.958Z,76.20
2019-02-12T23:12:33.091Z,76.40
2019-02-12T23:15:13.947Z,76.50
2019-02-12T23:17:54.434Z,76.40
2019-02-12T23:20:34.742Z,76.30
2019-02-12T23:23:14.550Z,76.90
2019-02-12T23:25:54.422Z,77.20
2019-02-12T23:28:34.430Z,78.20
2019-02-12T23:31:15.383Z,78.70
2019-02-12T23:33:55.202Z,78.40
2019-02-12T23:36:36.124Z,78.60
2019-02-12T23:39:16.520Z,78.90
2019-02-12T23:41:58.366Z,80.30
2019-02-12T23:44:39.063Z,80.80
2019-02-12T23:47:19.463Z,81.40
2019-02-12T23:50:00.667Z,82.30
2019-02-12T23:52:41.086Z,81.30
2019-02-12T23:55:20.689Z,81.00
2019-02-12T23:58:05.975Z,81.60
